General WM J Fox Airfield
KWJF : now visible

Airfield :











YOU CAN JOIN US ON...

 
LOGIN :

Register | Disclaimer

   EN    FR    IT 

 









Legend :    VFR   Marginal VFR   IFR   Intensive IFR   Very Intensive IFR
Visi :
Ceiling :
>= 8 km
>= 3000ft
5 to 8 km
1000 to 3000 ft
1500m to 5 km
500 to 1000 ft
800 to 1500m
200 to 500 ft
< 800m
< 200 ft
Symbols :   Thunderstorms  Fog  Heavy snow  Heavy precipitations  Wind > 20 kt






- Airport Elevation : 2351 ft


KWJF - General WM J Fox

CURRENT METAR :
  • 100556Z AUTO 03004KT 10SM -RA BKN029 OVC034 07/06 A3008 RMK AO2 SLP193 P0002 60021 T00670061 10078 20067 50002

EXPIRED METARs :
  • 100546Z AUTO 03004KT 10SM -RA FEW025 SCT030 OVC035 07/06 A3008 RMK AO2 P0002 T00670061
  • 100534Z AUTO 04005KT 10SM -RA FEW008 BKN029 OVC035 07/07 A3008 RMK AO2 P0002 T00670067
  • 100527Z AUTO 03004KT 10SM -RA FEW010 BKN030 OVC035 07/07 A3008 RMK AO2 P0001 T00670067
  • 100456Z AUTO 03004KT 10SM -RA BKN029 OVC039 07/06 A3008 RMK AO2 SLP194 P0003 T00670061
  • 100442Z AUTO 03005KT 10SM -RA FEW023 BKN029 OVC035 07/06 A3008 RMK AO2 P0002 T00670061
  • 100356Z 05006KT 10SM -RA FEW029 OVC035 07/06 A3008 RMK AO2 SLP196 P0004 T00720061
  • 100342Z 06006KT 10SM -RA FEW029 OVC035 07/06 A3008 RMK AO2 P0003 T00720061
  • 100325Z 07007KT 10SM -RA SCT029 OVC035 07/06 A3008 RMK AO2 P0002 T00720061

TAF KWJF
Valid from the 10 at 06:00 until the 11 at 06:00 UTC


100555Z 1006/1106 03005KT P6SM -RA FEW025 SCT030 OVC035
FM101500 01005KT 6SM -SHRA BR OVC020
FM102100 03012KT P6SM VCSH OVC025
FM110300 30006KT P6SM BKN050



MET'MAP, your aeronautical weather chart ! - Copyright ORBIFLY December 2007 - Disclaimer

ORBIFLY MET'MAP TEAM :

Programming & Development : Alexandra Zaïnal
Concept & original design : Baudouin d'Aumeries
Assistance for programming : Marc-Olivier Méhu
Technical & hardware support : Manuel Goepfert

Contact : metmap@orbifly.com




SOURCES & CREDITS :

   NOAA       Earth
Advisory